Terminal Aerodrome Forecast
Issued by NWS Sioux Falls, SD

Home | Current Version | Previous Version | Graphics & Text | Print | Product List | Glossary Off
Versions: 1 2 3 4 5 6 7 8 9 10 11 12 13 14 15 16 17 18 19

424
FTUS43 KFSD 211730
TAFFSD
TAF
KFSD 211730Z 2118/2218 12009KT P6SM FEW250
     FM212200 09007KT P6SM SCT120
     FM220500 07004KT P6SM SCT250
     FM221500 08019KT P6SM SCT100=

USA.gov is the U.S. government's official web portal to all federal, state and local government web resources and services.